sensor_id;sensor_type;location;lat;lon;timestamp;P1;durP1;ratioP1;P2;durP2;ratioP2
73951;SDS011;62304;47.662;18.324;2022-12-18T00:02:57;42.78;;;15.55;;
73951;SDS011;62304;47.662;18.324;2022-12-18T00:06:00;49.03;;;17.87;;
73951;SDS011;62304;47.662;18.324;2022-12-18T00:09:04;30.33;;;10.30;;
73951;SDS011;62304;47.662;18.324;2022-12-18T00:12:07;45.40;;;16.33;;
73951;SDS011;62304;47.662;18.324;2022-12-18T00:15:16;42.90;;;15.90;;
73951;SDS011;62304;47.662;18.324;2022-12-18T00:18:19;40.20;;;14.87;;
73951;SDS011;62304;47.662;18.324;2022-12-18T00:21:22;50.50;;;17.67;;
73951;SDS011;62304;47.662;18.324;2022-12-18T00:24:25;46.60;;;16.23;;
73951;SDS011;62304;47.662;18.324;2022-12-18T00:27:28;44.08;;;14.52;;
73951;SDS011;62304;47.662;18.324;2022-12-18T00:30:31;37.40;;;12.65;;
73951;SDS011;62304;47.662;18.324;2022-12-18T00:33:34;43.60;;;16.80;;
73951;SDS011;62304;47.662;18.324;2022-12-18T00:36:39;46.70;;;16.98;;
73951;SDS011;62304;47.662;18.324;2022-12-18T00:39:43;49.10;;;16.33;;
73951;SDS011;62304;47.662;18.324;2022-12-18T00:42:46;44.20;;;15.70;;
73951;SDS011;62304;47.662;18.324;2022-12-18T00:45:57;44.90;;;15.55;;
73951;SDS011;62304;47.662;18.324;2022-12-18T00:49:00;47.28;;;15.90;;
73951;SDS011;62304;47.662;18.324;2022-12-18T00:52:03;53.03;;;17.63;;
73951;SDS011;62304;47.662;18.324;2022-12-18T00:55:07;49.53;;;17.80;;
73951;SDS011;62304;47.662;18.324;2022-12-18T00:58:10;43.75;;;17.12;;
73951;SDS011;62304;47.662;18.324;2022-12-18T01:01:14;41.65;;;15.95;;
73951;SDS011;62304;47.662;18.324;2022-12-18T01:04:18;46.88;;;18.17;;
73951;SDS011;62304;47.662;18.324;2022-12-18T01:07:21;43.65;;;16.42;;
73951;SDS011;62304;47.662;18.324;2022-12-18T01:10:23;43.15;;;16.12;;
73951;SDS011;62304;47.662;18.324;2022-12-18T01:13:31;37.40;;;15.13;;
73951;SDS011;62304;47.662;18.324;2022-12-18T01:16:34;43.30;;;16.75;;
73951;SDS011;62304;47.662;18.324;2022-12-18T01:19:39;41.20;;;16.02;;
73951;SDS011;62304;47.662;18.324;2022-12-18T01:22:44;36.05;;;13.80;;
73951;SDS011;62304;47.662;18.324;2022-12-18T01:25:47;40.15;;;14.65;;
73951;SDS011;62304;47.662;18.324;2022-12-18T01:28:50;45.42;;;16.60;;
73951;SDS011;62304;47.662;18.324;2022-12-18T01:31:55;38.47;;;15.05;;
73951;SDS011;62304;47.662;18.324;2022-12-18T01:34:58;39.30;;;14.47;;
73951;SDS011;62304;47.662;18.324;2022-12-18T01:38:01;39.80;;;14.05;;
73951;SDS011;62304;47.662;18.324;2022-12-18T01:41:04;44.53;;;15.30;;
73951;SDS011;62304;47.662;18.324;2022-12-18T01:44:46;54.53;;;17.87;;
73951;SDS011;62304;47.662;18.324;2022-12-18T01:47:51;40.67;;;15.23;;
73951;SDS011;62304;47.662;18.324;2022-12-18T01:50:57;44.00;;;15.68;;
73951;SDS011;62304;47.662;18.324;2022-12-18T01:53:59;42.85;;;16.15;;
73951;SDS011;62304;47.662;18.324;2022-12-18T01:57:04;45.45;;;15.70;;
73951;SDS011;62304;47.662;18.324;2022-12-18T02:00:08;49.70;;;18.08;;
73951;SDS011;62304;47.662;18.324;2022-12-18T02:03:25;51.78;;;19.62;;
73951;SDS011;62304;47.662;18.324;2022-12-18T02:06:39;49.10;;;18.50;;
73951;SDS011;62304;47.662;18.324;2022-12-18T02:09:50;42.80;;;15.30;;
73951;SDS011;62304;47.662;18.324;2022-12-18T02:13:08;39.15;;;15.20;;
73951;SDS011;62304;47.662;18.324;2022-12-18T02:16:21;39.90;;;15.35;;
73951;SDS011;62304;47.662;18.324;2022-12-18T02:23:24;47.28;;;15.75;;
73951;SDS011;62304;47.662;18.324;2022-12-18T02:26:27;43.03;;;15.52;;
73951;SDS011;62304;47.662;18.324;2022-12-18T02:29:53;35.53;;;14.23;;
73951;SDS011;62304;47.662;18.324;2022-12-18T02:33:02;28.77;;;10.40;;
73951;SDS011;62304;47.662;18.324;2022-12-18T02:36:08;38.58;;;15.55;;
73951;SDS011;62304;47.662;18.324;2022-12-18T02:39:13;48.00;;;17.42;;
73951;SDS011;62304;47.662;18.324;2022-12-18T02:42:18;42.33;;;15.80;;
73951;SDS011;62304;47.662;18.324;2022-12-18T02:45:22;43.40;;;15.18;;
73951;SDS011;62304;47.662;18.324;2022-12-18T02:48:33;46.97;;;17.55;;
73951;SDS011;62304;47.662;18.324;2022-12-18T02:51:47;38.53;;;15.23;;
73951;SDS011;62304;47.662;18.324;2022-12-18T03:02:02;37.90;;;14.77;;
73951;SDS011;62304;47.662;18.324;2022-12-18T03:08:22;47.70;;;17.70;;
73951;SDS011;62304;47.662;18.324;2022-12-18T03:11:32;45.45;;;15.18;;
73951;SDS011;62304;47.662;18.324;2022-12-18T03:15:12;48.97;;;15.10;;
73951;SDS011;62304;47.662;18.324;2022-12-18T03:18:25;45.22;;;15.88;;
73951;SDS011;62304;47.662;18.324;2022-12-18T03:21:34;43.50;;;16.48;;
73951;SDS011;62304;47.662;18.324;2022-12-18T03:24:44;53.03;;;18.75;;
73951;SDS011;62304;47.662;18.324;2022-12-18T03:27:51;54.38;;;18.30;;
73951;SDS011;62304;47.662;18.324;2022-12-18T03:30:59;46.37;;;16.42;;
73951;SDS011;62304;47.662;18.324;2022-12-18T03:34:04;53.95;;;17.85;;
73951;SDS011;62304;47.662;18.324;2022-12-18T03:37:17;48.50;;;15.93;;
73951;SDS011;62304;47.662;18.324;2022-12-18T03:40:20;48.10;;;17.48;;
73951;SDS011;62304;47.662;18.324;2022-12-18T03:43:54;39.30;;;14.45;;
73951;SDS011;62304;47.662;18.324;2022-12-18T03:50:15;42.20;;;15.88;;
73951;SDS011;62304;47.662;18.324;2022-12-18T03:56:46;44.65;;;16.48;;
73951;SDS011;62304;47.662;18.324;2022-12-18T04:00:03;40.10;;;14.63;;
73951;SDS011;62304;47.662;18.324;2022-12-18T04:03:14;42.80;;;15.02;;
73951;SDS011;62304;47.662;18.324;2022-12-18T04:06:28;49.80;;;17.45;;
73951;SDS011;62304;47.662;18.324;2022-12-18T04:09:32;49.90;;;16.80;;
73951;SDS011;62304;47.662;18.324;2022-12-18T04:12:38;44.88;;;15.15;;
73951;SDS011;62304;47.662;18.324;2022-12-18T04:15:43;47.15;;;15.65;;
73951;SDS011;62304;47.662;18.324;2022-12-18T04:18:47;42.13;;;15.07;;
73951;SDS011;62304;47.662;18.324;2022-12-18T04:21:50;48.05;;;16.42;;
73951;SDS011;62304;47.662;18.324;2022-12-18T04:24:53;37.45;;;13.75;;
73951;SDS011;62304;47.662;18.324;2022-12-18T04:27:56;59.63;;;22.08;;
73951;SDS011;62304;47.662;18.324;2022-12-18T04:30:59;51.37;;;19.95;;
73951;SDS011;62304;47.662;18.324;2022-12-18T04:34:02;45.70;;;15.60;;
73951;SDS011;62304;47.662;18.324;2022-12-18T04:37:08;43.83;;;16.15;;
73951;SDS011;62304;47.662;18.324;2022-12-18T04:40:11;43.70;;;15.70;;
73951;SDS011;62304;47.662;18.324;2022-12-18T04:43:14;50.80;;;15.85;;
73951;SDS011;62304;47.662;18.324;2022-12-18T04:46:17;43.30;;;17.25;;
73951;SDS011;62304;47.662;18.324;2022-12-18T04:49:20;52.57;;;17.67;;
73951;SDS011;62304;47.662;18.324;2022-12-18T04:52:23;47.13;;;17.23;;
73951;SDS011;62304;47.662;18.324;2022-12-18T04:55:26;49.33;;;16.67;;
73951;SDS011;62304;47.662;18.324;2022-12-18T04:58:29;51.42;;;16.30;;
73951;SDS011;62304;47.662;18.324;2022-12-18T05:01:32;47.10;;;17.17;;
73951;SDS011;62304;47.662;18.324;2022-12-18T05:04:37;51.10;;;16.95;;
73951;SDS011;62304;47.662;18.324;2022-12-18T05:07:41;50.65;;;16.15;;
73951;SDS011;62304;47.662;18.324;2022-12-18T05:10:44;48.63;;;16.30;;
73951;SDS011;62304;47.662;18.324;2022-12-18T05:13:47;47.28;;;16.42;;
73951;SDS011;62304;47.662;18.324;2022-12-18T05:16:50;50.60;;;16.77;;
73951;SDS011;62304;47.662;18.324;2022-12-18T05:19:58;52.87;;;17.10;;
73951;SDS011;62304;47.662;18.324;2022-12-18T05:23:00;50.12;;;17.70;;
73951;SDS011;62304;47.662;18.324;2022-12-18T05:26:04;44.63;;;16.52;;
73951;SDS011;62304;47.662;18.324;2022-12-18T05:29:08;50.88;;;16.35;;
73951;SDS011;62304;47.662;18.324;2022-12-18T05:32:15;53.05;;;18.52;;
73951;SDS011;62304;47.662;18.324;2022-12-18T05:35:18;48.38;;;17.77;;
73951;SDS011;62304;47.662;18.324;2022-12-18T05:38:22;47.72;;;16.55;;
73951;SDS011;62304;47.662;18.324;2022-12-18T05:41:26;52.07;;;16.53;;
73951;SDS011;62304;47.662;18.324;2022-12-18T05:44:30;47.90;;;16.17;;
73951;SDS011;62304;47.662;18.324;2022-12-18T05:47:32;207.62;;;49.28;;
73951;SDS011;62304;47.662;18.324;2022-12-18T05:50:36;97.10;;;24.40;;
73951;SDS011;62304;47.662;18.324;2022-12-18T05:53:41;136.30;;;36.53;;
73951;SDS011;62304;47.662;18.324;2022-12-18T05:56:45;87.85;;;27.75;;
73951;SDS011;62304;47.662;18.324;2022-12-18T05:59:50;238.12;;;61.78;;
73951;SDS011;62304;47.662;18.324;2022-12-18T06:02:53;122.62;;;36.15;;
73951;SDS011;62304;47.662;18.324;2022-12-18T06:05:56;92.00;;;26.60;;
73951;SDS011;62304;47.662;18.324;2022-12-18T06:08:59;62.95;;;18.80;;
73951;SDS011;62304;47.662;18.324;2022-12-18T06:12:04;48.50;;;16.63;;
73951;SDS011;62304;47.662;18.324;2022-12-18T06:15:07;48.67;;;17.20;;
73951;SDS011;62304;47.662;18.324;2022-12-18T06:18:10;48.95;;;15.82;;
73951;SDS011;62304;47.662;18.324;2022-12-18T06:21:13;46.73;;;15.03;;
73951;SDS011;62304;47.662;18.324;2022-12-18T06:24:16;35.85;;;13.60;;
73951;SDS011;62304;47.662;18.324;2022-12-18T06:27:19;48.58;;;17.80;;
73951;SDS011;62304;47.662;18.324;2022-12-18T06:30:22;47.55;;;16.05;;
73951;SDS011;62304;47.662;18.324;2022-12-18T06:33:26;56.37;;;18.70;;
73951;SDS011;62304;47.662;18.324;2022-12-18T06:36:30;42.60;;;15.07;;
73951;SDS011;62304;47.662;18.324;2022-12-18T06:39:33;44.67;;;16.45;;
73951;SDS011;62304;47.662;18.324;2022-12-18T06:42:36;50.10;;;16.03;;
73951;SDS011;62304;47.662;18.324;2022-12-18T06:45:39;52.80;;;18.23;;
73951;SDS011;62304;47.662;18.324;2022-12-18T06:48:42;49.10;;;17.62;;
73951;SDS011;62304;47.662;18.324;2022-12-18T06:51:48;43.10;;;16.10;;
73951;SDS011;62304;47.662;18.324;2022-12-18T06:54:51;38.25;;;14.32;;
73951;SDS011;62304;47.662;18.324;2022-12-18T06:57:54;51.83;;;18.80;;
73951;SDS011;62304;47.662;18.324;2022-12-18T07:01:00;48.70;;;16.08;;
73951;SDS011;62304;47.662;18.324;2022-12-18T07:04:04;54.33;;;18.52;;
73951;SDS011;62304;47.662;18.324;2022-12-18T07:07:07;79.15;;;28.33;;
73951;SDS011;62304;47.662;18.324;2022-12-18T07:10:10;65.10;;;22.80;;
73951;SDS011;62304;47.662;18.324;2022-12-18T07:13:13;54.03;;;19.50;;
73951;SDS011;62304;47.662;18.324;2022-12-18T07:16:17;269.23;;;78.65;;
73951;SDS011;62304;47.662;18.324;2022-12-18T07:19:27;69.10;;;24.92;;
73951;SDS011;62304;47.662;18.324;2022-12-18T07:22:31;62.03;;;24.03;;
73951;SDS011;62304;47.662;18.324;2022-12-18T07:25:34;70.53;;;23.73;;
73951;SDS011;62304;47.662;18.324;2022-12-18T07:28:38;68.80;;;26.62;;
73951;SDS011;62304;47.662;18.324;2022-12-18T07:31:42;70.28;;;23.50;;
73951;SDS011;62304;47.662;18.324;2022-12-18T07:34:45;73.68;;;28.40;;
73951;SDS011;62304;47.662;18.324;2022-12-18T07:37:48;75.55;;;27.20;;
73951;SDS011;62304;47.662;18.324;2022-12-18T07:40:51;79.62;;;30.25;;
73951;SDS011;62304;47.662;18.324;2022-12-18T07:43:54;76.90;;;28.13;;
73951;SDS011;62304;47.662;18.324;2022-12-18T07:46:57;103.43;;;35.67;;
73951;SDS011;62304;47.662;18.324;2022-12-18T07:50:00;72.53;;;27.52;;
73951;SDS011;62304;47.662;18.324;2022-12-18T07:53:03;70.13;;;25.63;;
73951;SDS011;62304;47.662;18.324;2022-12-18T07:56:08;72.15;;;25.75;;
73951;SDS011;62304;47.662;18.324;2022-12-18T07:59:29;67.20;;;24.87;;
73951;SDS011;62304;47.662;18.324;2022-12-18T08:02:32;71.43;;;26.20;;
73951;SDS011;62304;47.662;18.324;2022-12-18T08:05:36;64.70;;;24.98;;
73951;SDS011;62304;47.662;18.324;2022-12-18T08:08:38;75.60;;;26.75;;
73951;SDS011;62304;47.662;18.324;2022-12-18T08:11:43;57.92;;;22.87;;
73951;SDS011;62304;47.662;18.324;2022-12-18T08:14:46;41.27;;;18.60;;
73951;SDS011;62304;47.662;18.324;2022-12-18T08:17:49;42.65;;;16.80;;
73951;SDS011;62304;47.662;18.324;2022-12-18T08:20:52;50.55;;;19.55;;
73951;SDS011;62304;47.662;18.324;2022-12-18T08:23:56;159.93;;;52.40;;
73951;SDS011;62304;47.662;18.324;2022-12-18T08:27:01;119.80;;;45.67;;
73951;SDS011;62304;47.662;18.324;2022-12-18T08:30:17;91.03;;;33.45;;
73951;SDS011;62304;47.662;18.324;2022-12-18T08:33:20;148.20;;;50.25;;
73951;SDS011;62304;47.662;18.324;2022-12-18T08:36:23;38.97;;;14.87;;
73951;SDS011;62304;47.662;18.324;2022-12-18T08:39:28;88.28;;;31.20;;
73951;SDS011;62304;47.662;18.324;2022-12-18T08:42:31;128.93;;;44.55;;
73951;SDS011;62304;47.662;18.324;2022-12-18T08:45:53;63.85;;;27.70;;
73951;SDS011;62304;47.662;18.324;2022-12-18T08:48:57;255.83;;;85.00;;
73951;SDS011;62304;47.662;18.324;2022-12-18T08:52:01;217.55;;;72.82;;
73951;SDS011;62304;47.662;18.324;2022-12-18T08:55:05;76.12;;;30.48;;
73951;SDS011;62304;47.662;18.324;2022-12-18T08:58:08;65.55;;;26.52;;
73951;SDS011;62304;47.662;18.324;2022-12-18T09:01:12;68.30;;;29.17;;
73951;SDS011;62304;47.662;18.324;2022-12-18T09:04:16;52.70;;;19.07;;
73951;SDS011;62304;47.662;18.324;2022-12-18T09:07:19;50.90;;;19.87;;
73951;SDS011;62304;47.662;18.324;2022-12-18T09:10:22;137.02;;;63.87;;
73951;SDS011;62304;47.662;18.324;2022-12-18T09:13:25;91.07;;;41.10;;
73951;SDS011;62304;47.662;18.324;2022-12-18T09:16:28;48.45;;;18.10;;
73951;SDS011;62304;47.662;18.324;2022-12-18T09:19:34;53.53;;;21.67;;
73951;SDS011;62304;47.662;18.324;2022-12-18T09:22:37;50.17;;;21.43;;
73951;SDS011;62304;47.662;18.324;2022-12-18T09:25:40;50.53;;;22.60;;
73951;SDS011;62304;47.662;18.324;2022-12-18T09:28:43;55.65;;;24.87;;
73951;SDS011;62304;47.662;18.324;2022-12-18T09:31:46;51.58;;;25.67;;
73951;SDS011;62304;47.662;18.324;2022-12-18T09:34:49;49.63;;;21.40;;
73951;SDS011;62304;47.662;18.324;2022-12-18T09:37:52;49.33;;;21.47;;
73951;SDS011;62304;47.662;18.324;2022-12-18T09:40:57;48.55;;;22.62;;
73951;SDS011;62304;47.662;18.324;2022-12-18T09:47:34;53.70;;;23.50;;
73951;SDS011;62304;47.662;18.324;2022-12-18T09:50:40;48.80;;;20.77;;
73951;SDS011;62304;47.662;18.324;2022-12-18T09:53:44;44.27;;;19.23;;
73951;SDS011;62304;47.662;18.324;2022-12-18T09:56:52;52.55;;;20.65;;
73951;SDS011;62304;47.662;18.324;2022-12-18T09:59:56;48.78;;;20.42;;
73951;SDS011;62304;47.662;18.324;2022-12-18T10:03:13;51.03;;;22.67;;
73951;SDS011;62304;47.662;18.324;2022-12-18T10:09:29;52.83;;;24.27;;
73951;SDS011;62304;47.662;18.324;2022-12-18T10:16:09;50.15;;;22.25;;
73951;SDS011;62304;47.662;18.324;2022-12-18T10:19:33;50.63;;;22.85;;
73951;SDS011;62304;47.662;18.324;2022-12-18T10:26:04;42.43;;;19.50;;
73951;SDS011;62304;47.662;18.324;2022-12-18T10:29:12;51.03;;;21.12;;
73951;SDS011;62304;47.662;18.324;2022-12-18T10:32:24;46.92;;;20.77;;
73951;SDS011;62304;47.662;18.324;2022-12-18T10:35:30;44.65;;;20.75;;
73951;SDS011;62304;47.662;18.324;2022-12-18T10:38:33;44.33;;;20.17;;
73951;SDS011;62304;47.662;18.324;2022-12-18T10:41:36;49.10;;;21.03;;
73951;SDS011;62304;47.662;18.324;2022-12-18T10:44:39;51.75;;;22.15;;
73951;SDS011;62304;47.662;18.324;2022-12-18T10:47:46;47.45;;;22.05;;
73951;SDS011;62304;47.662;18.324;2022-12-18T10:50:51;52.22;;;21.58;;
73951;SDS011;62304;47.662;18.324;2022-12-18T10:54:13;51.40;;;22.20;;
73951;SDS011;62304;47.662;18.324;2022-12-18T11:00:29;44.08;;;19.23;;
73951;SDS011;62304;47.662;18.324;2022-12-18T11:03:46;43.15;;;18.90;;
73951;SDS011;62304;47.662;18.324;2022-12-18T11:07:04;43.05;;;18.62;;
73951;SDS011;62304;47.662;18.324;2022-12-18T11:10:15;43.73;;;19.33;;
73951;SDS011;62304;47.662;18.324;2022-12-18T11:13:17;43.97;;;21.73;;
73951;SDS011;62304;47.662;18.324;2022-12-18T11:16:26;42.58;;;21.10;;
73951;SDS011;62304;47.662;18.324;2022-12-18T11:19:37;38.50;;;17.65;;
73951;SDS011;62304;47.662;18.324;2022-12-18T11:22:43;35.70;;;16.80;;
73951;SDS011;62304;47.662;18.324;2022-12-18T11:26:01;43.23;;;19.10;;
73951;SDS011;62304;47.662;18.324;2022-12-18T11:29:10;43.27;;;16.53;;
73951;SDS011;62304;47.662;18.324;2022-12-18T11:32:23;38.88;;;17.40;;
73951;SDS011;62304;47.662;18.324;2022-12-18T11:35:40;41.00;;;19.23;;
73951;SDS011;62304;47.662;18.324;2022-12-18T11:38:50;40.03;;;18.77;;
73951;SDS011;62304;47.662;18.324;2022-12-18T11:45:21;41.37;;;19.13;;
73951;SDS011;62304;47.662;18.324;2022-12-18T11:48:49;39.75;;;16.83;;
73951;SDS011;62304;47.662;18.324;2022-12-18T11:52:10;47.40;;;18.40;;
73951;SDS011;62304;47.662;18.324;2022-12-18T12:01:50;43.22;;;19.25;;
73951;SDS011;62304;47.662;18.324;2022-12-18T12:19:02;42.95;;;19.92;;
73951;SDS011;62304;47.662;18.324;2022-12-18T12:25:31;42.75;;;19.73;;
73951;SDS011;62304;47.662;18.324;2022-12-18T12:35:18;42.25;;;18.98;;
73951;SDS011;62304;47.662;18.324;2022-12-18T12:38:55;40.38;;;17.60;;
73951;SDS011;62304;47.662;18.324;2022-12-18T12:42:05;41.45;;;17.65;;
73951;SDS011;62304;47.662;18.324;2022-12-18T12:45:37;40.97;;;18.13;;
73951;SDS011;62304;47.662;18.324;2022-12-18T12:48:52;41.30;;;17.07;;
73951;SDS011;62304;47.662;18.324;2022-12-18T12:52:07;39.90;;;18.95;;
73951;SDS011;62304;47.662;18.324;2022-12-18T12:55:17;40.85;;;18.75;;
73951;SDS011;62304;47.662;18.324;2022-12-18T13:02:06;44.33;;;19.30;;
73951;SDS011;62304;47.662;18.324;2022-12-18T13:05:38;41.43;;;18.43;;
73951;SDS011;62304;47.662;18.324;2022-12-18T13:08:57;47.67;;;22.10;;
73951;SDS011;62304;47.662;18.324;2022-12-18T13:12:03;46.15;;;21.73;;
73951;SDS011;62304;47.662;18.324;2022-12-18T13:15:32;45.90;;;19.90;;
73951;SDS011;62304;47.662;18.324;2022-12-18T13:18:51;47.37;;;19.03;;
73951;SDS011;62304;47.662;18.324;2022-12-18T13:21:56;43.20;;;16.40;;
73951;SDS011;62304;47.662;18.324;2022-12-18T13:24:59;48.30;;;20.20;;
73951;SDS011;62304;47.662;18.324;2022-12-18T13:28:06;52.70;;;20.05;;
73951;SDS011;62304;47.662;18.324;2022-12-18T13:34:36;47.10;;;18.97;;
73951;SDS011;62304;47.662;18.324;2022-12-18T13:37:41;49.03;;;19.20;;
73951;SDS011;62304;47.662;18.324;2022-12-18T13:43:52;44.90;;;17.05;;
73951;SDS011;62304;47.662;18.324;2022-12-18T13:50:37;46.17;;;18.30;;
73951;SDS011;62304;47.662;18.324;2022-12-18T13:53:46;42.47;;;17.03;;
73951;SDS011;62304;47.662;18.324;2022-12-18T13:56:53;45.28;;;18.05;;
73951;SDS011;62304;47.662;18.324;2022-12-18T13:59:56;43.97;;;16.65;;
73951;SDS011;62304;47.662;18.324;2022-12-18T14:03:00;44.70;;;16.10;;
73951;SDS011;62304;47.662;18.324;2022-12-18T14:06:05;48.77;;;16.93;;
73951;SDS011;62304;47.662;18.324;2022-12-18T14:09:29;45.17;;;16.90;;
73951;SDS011;62304;47.662;18.324;2022-12-18T14:12:38;46.05;;;18.23;;
73951;SDS011;62304;47.662;18.324;2022-12-18T14:16:04;46.72;;;16.95;;
73951;SDS011;62304;47.662;18.324;2022-12-18T14:19:14;49.75;;;17.15;;
73951;SDS011;62304;47.662;18.324;2022-12-18T14:22:20;47.77;;;17.77;;
73951;SDS011;62304;47.662;18.324;2022-12-18T14:25:30;45.42;;;17.17;;
73951;SDS011;62304;47.662;18.324;2022-12-18T14:28:42;50.12;;;18.65;;
73951;SDS011;62304;47.662;18.324;2022-12-18T14:32:03;57.53;;;19.33;;
73951;SDS011;62304;47.662;18.324;2022-12-18T14:35:20;52.72;;;17.70;;
73951;SDS011;62304;47.662;18.324;2022-12-18T14:38:47;50.20;;;16.97;;
73951;SDS011;62304;47.662;18.324;2022-12-18T14:41:50;51.22;;;17.55;;
73951;SDS011;62304;47.662;18.324;2022-12-18T14:48:43;50.15;;;17.08;;
73951;SDS011;62304;47.662;18.324;2022-12-18T14:51:53;53.05;;;18.30;;
73951;SDS011;62304;47.662;18.324;2022-12-18T14:54:58;46.30;;;16.65;;
73951;SDS011;62304;47.662;18.324;2022-12-18T14:58:02;49.97;;;16.65;;
73951;SDS011;62304;47.662;18.324;2022-12-18T15:01:05;48.87;;;17.90;;
73951;SDS011;62304;47.662;18.324;2022-12-18T15:04:26;53.63;;;18.10;;
73951;SDS011;62304;47.662;18.324;2022-12-18T15:07:45;60.00;;;20.97;;
73951;SDS011;62304;47.662;18.324;2022-12-18T15:10:52;54.28;;;18.73;;
73951;SDS011;62304;47.662;18.324;2022-12-18T15:13:57;56.42;;;20.25;;
73951;SDS011;62304;47.662;18.324;2022-12-18T15:17:21;59.05;;;20.62;;
73951;SDS011;62304;47.662;18.324;2022-12-18T15:20:30;54.73;;;18.97;;
73951;SDS011;62304;47.662;18.324;2022-12-18T15:23:48;54.72;;;18.60;;
73951;SDS011;62304;47.662;18.324;2022-12-18T15:26:54;50.42;;;18.40;;
73951;SDS011;62304;47.662;18.324;2022-12-18T15:33:16;49.57;;;17.77;;
73951;SDS011;62304;47.662;18.324;2022-12-18T15:36:27;56.70;;;19.05;;
73951;SDS011;62304;47.662;18.324;2022-12-18T15:39:39;63.95;;;20.92;;
73951;SDS011;62304;47.662;18.324;2022-12-18T15:42:43;71.78;;;25.70;;
73951;SDS011;62304;47.662;18.324;2022-12-18T15:46:07;123.07;;;44.70;;
73951;SDS011;62304;47.662;18.324;2022-12-18T15:49:16;138.98;;;50.58;;
73951;SDS011;62304;47.662;18.324;2022-12-18T15:52:21;94.70;;;34.30;;
73951;SDS011;62304;47.662;18.324;2022-12-18T15:55:29;63.70;;;23.43;;
73951;SDS011;62304;47.662;18.324;2022-12-18T15:58:59;62.62;;;23.40;;
73951;SDS011;62304;47.662;18.324;2022-12-18T16:02:07;87.88;;;28.95;;
73951;SDS011;62304;47.662;18.324;2022-12-18T16:05:20;90.75;;;31.30;;
73951;SDS011;62304;47.662;18.324;2022-12-18T16:08:30;99.70;;;38.83;;
73951;SDS011;62304;47.662;18.324;2022-12-18T16:11:36;98.00;;;34.70;;
73951;SDS011;62304;47.662;18.324;2022-12-18T16:14:50;93.65;;;33.95;;
73951;SDS011;62304;47.662;18.324;2022-12-18T16:17:54;94.93;;;34.85;;
73951;SDS011;62304;47.662;18.324;2022-12-18T16:20:58;92.23;;;33.67;;
73951;SDS011;62304;47.662;18.324;2022-12-18T16:24:03;100.05;;;37.05;;
73951;SDS011;62304;47.662;18.324;2022-12-18T16:27:07;112.05;;;38.25;;
73951;SDS011;62304;47.662;18.324;2022-12-18T16:30:13;106.10;;;38.80;;
73951;SDS011;62304;47.662;18.324;2022-12-18T16:33:21;110.03;;;40.55;;
73951;SDS011;62304;47.662;18.324;2022-12-18T16:36:27;127.03;;;41.25;;
73951;SDS011;62304;47.662;18.324;2022-12-18T16:39:33;131.15;;;48.33;;
73951;SDS011;62304;47.662;18.324;2022-12-18T16:42:39;175.93;;;60.10;;
73951;SDS011;62304;47.662;18.324;2022-12-18T16:45:43;207.73;;;75.33;;
73951;SDS011;62304;47.662;18.324;2022-12-18T16:48:48;190.05;;;62.13;;
73951;SDS011;62304;47.662;18.324;2022-12-18T16:51:52;169.60;;;65.12;;
73951;SDS011;62304;47.662;18.324;2022-12-18T16:54:55;167.27;;;56.28;;
73951;SDS011;62304;47.662;18.324;2022-12-18T16:57:59;131.20;;;45.57;;
73951;SDS011;62304;47.662;18.324;2022-12-18T17:01:07;107.70;;;41.15;;
73951;SDS011;62304;47.662;18.324;2022-12-18T17:04:11;119.47;;;44.15;;
73951;SDS011;62304;47.662;18.324;2022-12-18T17:07:16;134.70;;;46.80;;
73951;SDS011;62304;47.662;18.324;2022-12-18T17:10:20;157.20;;;54.95;;
73951;SDS011;62304;47.662;18.324;2022-12-18T17:13:25;133.82;;;50.42;;
73951;SDS011;62304;47.662;18.324;2022-12-18T17:16:30;116.80;;;44.03;;
73951;SDS011;62304;47.662;18.324;2022-12-18T17:19:36;113.63;;;39.50;;
73951;SDS011;62304;47.662;18.324;2022-12-18T17:22:41;111.95;;;39.70;;
73951;SDS011;62304;47.662;18.324;2022-12-18T17:25:47;119.97;;;41.15;;
73951;SDS011;62304;47.662;18.324;2022-12-18T17:28:51;104.90;;;39.17;;
73951;SDS011;62304;47.662;18.324;2022-12-18T17:31:55;96.80;;;34.50;;
73951;SDS011;62304;47.662;18.324;2022-12-18T17:35:02;101.47;;;34.10;;
73951;SDS011;62304;47.662;18.324;2022-12-18T17:38:23;91.90;;;32.63;;
73951;SDS011;62304;47.662;18.324;2022-12-18T17:41:28;95.47;;;36.63;;
73951;SDS011;62304;47.662;18.324;2022-12-18T17:44:32;90.67;;;32.27;;
73951;SDS011;62304;47.662;18.324;2022-12-18T17:47:37;93.93;;;35.38;;
73951;SDS011;62304;47.662;18.324;2022-12-18T17:50:41;104.85;;;40.67;;
73951;SDS011;62304;47.662;18.324;2022-12-18T17:53:50;96.30;;;37.87;;
73951;SDS011;62304;47.662;18.324;2022-12-18T17:56:54;92.68;;;35.17;;
73951;SDS011;62304;47.662;18.324;2022-12-18T17:59:58;104.35;;;37.70;;
73951;SDS011;62304;47.662;18.324;2022-12-18T18:03:02;104.22;;;40.17;;
73951;SDS011;62304;47.662;18.324;2022-12-18T18:06:08;103.57;;;38.88;;
73951;SDS011;62304;47.662;18.324;2022-12-18T18:09:14;99.10;;;37.72;;
73951;SDS011;62304;47.662;18.324;2022-12-18T18:12:19;96.70;;;37.25;;
73951;SDS011;62304;47.662;18.324;2022-12-18T18:15:42;97.27;;;35.53;;
73951;SDS011;62304;47.662;18.324;2022-12-18T18:18:48;91.78;;;32.35;;
73951;SDS011;62304;47.662;18.324;2022-12-18T18:21:52;100.78;;;36.83;;
73951;SDS011;62304;47.662;18.324;2022-12-18T18:24:56;103.15;;;35.80;;
73951;SDS011;62304;47.662;18.324;2022-12-18T18:28:00;98.78;;;35.75;;
73951;SDS011;62304;47.662;18.324;2022-12-18T18:31:13;102.53;;;37.33;;
73951;SDS011;62304;47.662;18.324;2022-12-18T18:34:18;125.15;;;43.28;;
73951;SDS011;62304;47.662;18.324;2022-12-18T18:37:25;117.90;;;41.73;;
73951;SDS011;62304;47.662;18.324;2022-12-18T18:40:29;108.32;;;38.60;;
73951;SDS011;62304;47.662;18.324;2022-12-18T18:43:33;105.07;;;38.70;;
73951;SDS011;62304;47.662;18.324;2022-12-18T18:46:37;120.93;;;43.60;;
73951;SDS011;62304;47.662;18.324;2022-12-18T18:49:43;106.00;;;42.08;;
73951;SDS011;62304;47.662;18.324;2022-12-18T18:52:47;108.55;;;39.88;;
73951;SDS011;62304;47.662;18.324;2022-12-18T18:55:51;122.05;;;41.42;;
73951;SDS011;62304;47.662;18.324;2022-12-18T18:59:15;119.57;;;41.50;;
73951;SDS011;62304;47.662;18.324;2022-12-18T19:02:33;118.87;;;42.72;;
73951;SDS011;62304;47.662;18.324;2022-12-18T19:05:37;128.68;;;47.03;;
73951;SDS011;62304;47.662;18.324;2022-12-18T19:08:49;112.47;;;45.00;;
73951;SDS011;62304;47.662;18.324;2022-12-18T19:12:04;120.60;;;43.72;;
73951;SDS011;62304;47.662;18.324;2022-12-18T19:15:26;111.80;;;42.88;;
73951;SDS011;62304;47.662;18.324;2022-12-18T19:18:30;113.78;;;43.83;;
73951;SDS011;62304;47.662;18.324;2022-12-18T19:21:36;129.40;;;47.47;;
73951;SDS011;62304;47.662;18.324;2022-12-18T19:24:40;132.35;;;47.25;;
73951;SDS011;62304;47.662;18.324;2022-12-18T19:27:45;120.45;;;43.87;;
73951;SDS011;62304;47.662;18.324;2022-12-18T19:30:50;109.65;;;39.78;;